Time;durP1;ratioP1;P1;durP2;ratioP2;P2;SDS_P1;SDS_P2;PMS_P1;PMS_P2;Temp;Humidity;BMP_temperature;BMP_pressure;BME280_temperature;BME280_humidity;BME280_pressure;Samples;Min_cycle;Max_cycle;Signal;HPM_P1;HPM_P2
2023/08/15 00:01:49;;;;;;;5.10;4.70;;;;;;;;;;5050416;28;20339;-64
2023/08/15 00:04:16;;;;;;;5.20;4.30;;;;;;;;;;5050930;28;20683;-65
2023/08/15 00:06:44;;;;;;;5.82;4.28;;;;;;;;;;5051658;28;20631;-65
2023/08/15 00:09:10;;;;;;;7.18;4.30;;;;;;;;;;5050466;28;20222;-66
2023/08/15 00:11:36;;;;;;;6.97;4.30;;;;;;;;;;5050592;28;20206;-65
2023/08/15 00:14:03;;;;;;;6.32;4.63;;;;;;;;;;5050604;28;20231;-64
2023/08/15 00:16:29;;;;;;;4.38;4.07;;;;;;;;;;5051586;28;20231;-66
2023/08/15 00:18:56;;;;;;;4.97;4.38;;;;;;;;;;5051571;28;20288;-65
2023/08/15 00:21:22;;;;;;;6.20;4.68;;;;;;;;;;5049386;28;20256;-64
2023/08/15 00:23:50;;;;;;;8.93;4.43;;;;;;;;;;5050404;28;20280;-65
2023/08/15 00:26:16;;;;;;;4.68;4.38;;;;;;;;;;5049145;28;20348;-65
2023/08/15 00:28:43;;;;;;;6.93;4.53;;;;;;;;;;5056087;28;20230;-64
2023/08/15 00:31:09;;;;;;;4.65;4.35;;;;;;;;;;5051340;28;20226;-64
2023/08/15 00:33:36;;;;;;;4.93;4.53;;;;;;;;;;5062297;28;20639;-65
2023/08/15 00:36:04;;;;;;;4.20;3.90;;;;;;;;;;5063388;28;20279;-65
2023/08/15 00:38:30;;;;;;;5.22;4.30;;;;;;;;;;5062753;28;20588;-65
2023/08/15 00:40:58;;;;;;;7.25;4.63;;;;;;;;;;5064443;28;20229;-64
2023/08/15 00:43:24;;;;;;;5.00;4.57;;;;;;;;;;5064640;28;20249;-65
2023/08/15 00:45:51;;;;;;;4.93;4.28;;;;;;;;;;5064006;28;20257;-64
2023/08/15 00:48:18;;;;;;;4.97;4.53;;;;;;;;;;5063302;28;20264;-64
2023/08/15 00:50:47;;;;;;;4.22;4.03;;;;;;;;;;5064167;28;20291;-64
2023/08/15 00:53:14;;;;;;;4.35;4.03;;;;;;;;;;5064278;28;20218;-64
2023/08/15 00:55:40;;;;;;;4.57;4.18;;;;;;;;;;5064115;28;20238;-64
2023/08/15 00:58:08;;;;;;;4.93;4.47;;;;;;;;;;5064304;28;20212;-64
2023/08/15 01:00:34;;;;;;;5.85;4.45;;;;;;;;;;5065882;28;20663;-64
2023/08/15 01:03:01;;;;;;;5.20;4.80;;;;;;;;;;5064148;28;20238;-64
2023/08/15 01:05:28;;;;;;;6.13;4.57;;;;;;;;;;5063974;28;20210;-65
2023/08/15 01:07:54;;;;;;;4.38;3.97;;;;;;;;;;5063313;28;20275;-64
2023/08/15 01:10:21;;;;;;;6.28;4.13;;;;;;;;;;5061745;28;20269;-64
2023/08/15 01:12:51;;;;;;;9.57;4.63;;;;;;;;;;5063540;28;20214;-63
2023/08/15 01:15:20;;;;;;;5.05;4.60;;;;;;;;;;5062072;28;20214;-63
2023/08/15 01:17:49;;;;;;;4.95;4.35;;;;;;;;;;5063763;28;20210;-65
2023/08/15 01:20:18;;;;;;;4.80;4.40;;;;;;;;;;5062274;28;20206;-63
2023/08/15 01:22:47;;;;;;;5.63;4.50;;;;;;;;;;5063027;28;20230;-64
2023/08/15 01:25:15;;;;;;;7.13;4.32;;;;;;;;;;5063267;28;20221;-64
2023/08/15 01:27:42;;;;;;;6.72;4.20;;;;;;;;;;5064296;28;20194;-64
2023/08/15 01:30:09;;;;;;;6.22;4.20;;;;;;;;;;5063126;28;20205;-64
2023/08/15 01:32:38;;;;;;;9.57;4.63;;;;;;;;;;5063062;28;20209;-64
2023/08/15 01:35:06;;;;;;;7.40;4.30;;;;;;;;;;5062752;28;20212;-63
2023/08/15 01:37:33;;;;;;;7.07;4.47;;;;;;;;;;5063239;28;20603;-64
2023/08/15 01:40:01;;;;;;;4.95;4.53;;;;;;;;;;5062806;28;20306;-64
2023/08/15 01:42:30;;;;;;;8.57;4.45;;;;;;;;;;5063858;28;20194;-65
2023/08/15 01:44:57;;;;;;;4.20;3.75;;;;;;;;;;5063442;28;20781;-65
2023/08/15 01:47:24;;;;;;;7.05;4.57;;;;;;;;;;5063952;28;20560;-63
2023/08/15 01:49:50;;;;;;;4.85;4.45;;;;;;;;;;5065655;28;20860;-64
2023/08/15 01:52:17;;;;;;;5.57;4.30;;;;;;;;;;5066648;28;20253;-65
2023/08/15 01:54:43;;;;;;;6.28;4.72;;;;;;;;;;5066509;28;20252;-65
2023/08/15 01:57:10;;;;;;;5.45;4.13;;;;;;;;;;5066584;28;20210;-65
2023/08/15 01:59:37;;;;;;;4.72;4.35;;;;;;;;;;5066423;28;20306;-65
2023/08/15 02:02:06;;;;;;;4.63;4.05;;;;;;;;;;5066845;28;20291;-65
2023/08/15 02:04:33;;;;;;;5.60;4.35;;;;;;;;;;5065411;28;20671;-64
2023/08/15 02:06:59;;;;;;;6.60;4.75;;;;;;;;;;5066525;28;20198;-64
2023/08/15 02:09:26;;;;;;;4.50;4.20;;;;;;;;;;5065473;28;20371;-64
2023/08/15 02:11:52;;;;;;;5.78;4.03;;;;;;;;;;5065609;28;20271;-64
2023/08/15 02:14:19;;;;;;;4.53;4.18;;;;;;;;;;5065893;28;20219;-64
2023/08/15 02:16:46;;;;;;;4.85;4.45;;;;;;;;;;5065895;28;20272;-64
2023/08/15 02:19:13;;;;;;;4.43;4.03;;;;;;;;;;5065595;28;20252;-64
2023/08/15 02:21:39;;;;;;;4.82;4.32;;;;;;;;;;5065537;28;20291;-65
2023/08/15 02:24:06;;;;;;;4.75;4.35;;;;;;;;;;5066229;28;20330;-64
2023/08/15 02:26:35;;;;;;;4.70;4.40;;;;;;;;;;5063982;28;20691;-64
2023/08/15 02:29:02;;;;;;;4.22;3.92;;;;;;;;;;5065351;28;20203;-64
2023/08/15 02:31:30;;;;;;;5.85;3.80;;;;;;;;;;5065500;28;20664;-65
2023/08/15 02:33:57;;;;;;;4.53;3.47;;;;;;;;;;5065820;28;20271;-64
2023/08/15 02:36:24;;;;;;;4.80;4.20;;;;;;;;;;5065741;28;20263;-64
2023/08/15 02:38:50;;;;;;;4.53;4.05;;;;;;;;;;5064005;28;20719;-65
2023/08/15 02:41:17;;;;;;;4.93;3.85;;;;;;;;;;5065088;28;20796;-65
2023/08/15 02:43:43;;;;;;;4.32;3.92;;;;;;;;;;5065274;28;20686;-65
2023/08/15 02:46:10;;;;;;;8.02;4.35;;;;;;;;;;5065415;28;20359;-65
2023/08/15 02:48:36;;;;;;;4.25;3.85;;;;;;;;;;5064867;28;20206;-65
2023/08/15 02:51:07;;;;;;;4.18;3.90;;;;;;;;;;5065709;28;20222;-63
2023/08/15 02:53:33;;;;;;;4.95;4.30;;;;;;;;;;5065384;28;20249;-64
2023/08/15 02:56:00;;;;;;;5.40;4.28;;;;;;;;;;5065505;28;20210;-64
2023/08/15 02:58:27;;;;;;;4.18;3.88;;;;;;;;;;5065864;28;20255;-65
2023/08/15 03:00:53;;;;;;;4.43;4.13;;;;;;;;;;5063177;28;21666;-64
2023/08/15 03:03:20;;;;;;;5.32;4.90;;;;;;;;;;5066070;28;20202;-65
2023/08/15 03:05:46;;;;;;;5.00;4.45;;;;;;;;;;5066365;28;20205;-64
2023/08/15 03:08:14;;;;;;;4.82;4.10;;;;;;;;;;5065543;28;20234;-64
2023/08/15 03:10:42;;;;;;;4.40;3.80;;;;;;;;;;5063450;28;20260;-64
2023/08/15 03:13:08;;;;;;;11.32;3.53;;;;;;;;;;5065797;28;20855;-64
2023/08/15 03:15:37;;;;;;;3.88;3.58;;;;;;;;;;5065158;28;20315;-64
2023/08/15 03:18:04;;;;;;;4.75;3.90;;;;;;;;;;5065803;28;20293;-65
2023/08/15 03:20:30;;;;;;;4.10;3.70;;;;;;;;;;5063882;28;20737;-64
2023/08/15 03:22:57;;;;;;;4.75;3.70;;;;;;;;;;5064951;28;20313;-64
2023/08/15 03:25:25;;;;;;;9.35;3.60;;;;;;;;;;5063931;28;20214;-64
2023/08/15 03:27:51;;;;;;;3.88;3.58;;;;;;;;;;5064531;28;20210;-64
2023/08/15 03:30:18;;;;;;;5.32;4.25;;;;;;;;;;5064540;28;20253;-64
2023/08/15 03:32:44;;;;;;;5.03;4.07;;;;;;;;;;5065242;28;20202;-64
2023/08/15 03:35:11;;;;;;;5.38;3.83;;;;;;;;;;5065066;28;20735;-65
2023/08/15 03:37:37;;;;;;;3.90;3.47;;;;;;;;;;5063970;28;20210;-65
2023/08/15 03:40:04;;;;;;;5.28;4.43;;;;;;;;;;5063728;28;20789;-63
2023/08/15 03:42:32;;;;;;;6.35;3.95;;;;;;;;;;5064571;28;20293;-65
2023/08/15 03:44:58;;;;;;;4.60;3.78;;;;;;;;;;5064392;28;20309;-64
2023/08/15 03:47:24;;;;;;;4.65;4.32;;;;;;;;;;5064370;28;20251;-64
2023/08/15 03:49:51;;;;;;;9.48;4.05;;;;;;;;;;5064262;28;20226;-64
2023/08/15 03:52:17;;;;;;;4.40;4.03;;;;;;;;;;5064837;28;20225;-64
2023/08/15 03:54:44;;;;;;;3.95;3.60;;;;;;;;;;5064567;28;20256;-63
2023/08/15 03:57:10;;;;;;;6.40;3.78;;;;;;;;;;5064367;28;20872;-65
2023/08/15 03:59:38;;;;;;;6.95;4.07;;;;;;;;;;5063971;28;20630;-65
2023/08/15 04:02:04;;;;;;;5.82;4.38;;;;;;;;;;5063301;28;20222;-64
2023/08/15 04:04:32;;;;;;;4.60;3.92;;;;;;;;;;5064002;28;20218;-65
2023/08/15 04:06:59;;;;;;;9.57;4.53;;;;;;;;;;5063933;28;20198;-64
2023/08/15 04:09:26;;;;;;;5.05;4.22;;;;;;;;;;5063943;28;20206;-65
2023/08/15 04:11:52;;;;;;;5.47;3.83;;;;;;;;;;5063545;28;20204;-64
2023/08/15 04:14:19;;;;;;;6.03;4.45;;;;;;;;;;5063626;28;20253;-63
2023/08/15 04:16:47;;;;;;;7.25;4.32;;;;;;;;;;5064159;28;20296;-64
2023/08/15 04:19:13;;;;;;;4.85;4.22;;;;;;;;;;5063650;28;20206;-65
2023/08/15 04:21:39;;;;;;;5.50;4.22;;;;;;;;;;5063055;28;20206;-63
2023/08/15 04:24:06;;;;;;;7.03;4.55;;;;;;;;;;5063947;28;22172;-65
2023/08/15 04:26:33;;;;;;;4.47;3.88;;;;;;;;;;5063694;28;20206;-65
2023/08/15 04:28:59;;;;;;;7.78;4.13;;;;;;;;;;5063741;28;20260;-65
2023/08/15 04:31:25;;;;;;;6.95;4.43;;;;;;;;;;5063937;28;20194;-64
2023/08/15 04:33:53;;;;;;;5.80;4.80;;;;;;;;;;5063484;28;20198;-65
2023/08/15 04:36:20;;;;;;;5.25;4.85;;;;;;;;;;5063492;28;20252;-63
2023/08/15 04:38:46;;;;;;;4.13;3.90;;;;;;;;;;5063805;28;20707;-64
2023/08/15 04:41:15;;;;;;;4.70;4.35;;;;;;;;;;5063181;28;20328;-64
2023/08/15 04:43:42;;;;;;;4.22;3.97;;;;;;;;;;5063493;28;20210;-65
2023/08/15 04:46:08;;;;;;;10.60;4.00;;;;;;;;;;5062467;28;20714;-64
2023/08/15 04:48:35;;;;;;;4.45;4.07;;;;;;;;;;5063442;28;20558;-64
2023/08/15 04:51:03;;;;;;;7.68;4.68;;;;;;;;;;5063283;28;20210;-65
2023/08/15 04:53:29;;;;;;;4.53;4.13;;;;;;;;;;5063268;28;20213;-64
2023/08/15 04:55:55;;;;;;;5.40;4.65;;;;;;;;;;5063724;28;20203;-65
2023/08/15 04:58:22;;;;;;;4.90;4.50;;;;;;;;;;5064631;28;20251;-64
2023/08/15 05:00:48;;;;;;;6.30;4.78;;;;;;;;;;5064219;28;20236;-64
2023/08/15 05:03:15;;;;;;;5.43;4.35;;;;;;;;;;5064207;28;20226;-64
2023/08/15 05:05:41;;;;;;;5.07;4.65;;;;;;;;;;5062379;28;20261;-65
2023/08/15 05:08:09;;;;;;;4.13;3.80;;;;;;;;;;5058195;28;20239;-64
2023/08/15 05:10:35;;;;;;;4.68;4.38;;;;;;;;;;5047076;28;20195;-63
2023/08/15 05:13:02;;;;;;;6.45;4.22;;;;;;;;;;5049121;28;20680;-64
2023/08/15 05:15:28;;;;;;;6.97;4.05;;;;;;;;;;5048833;28;21218;-64
2023/08/15 05:17:55;;;;;;;6.57;3.88;;;;;;;;;;5061022;28;20285;-65
2023/08/15 05:20:21;;;;;;;9.63;5.70;;;;;;;;;;5064405;28;20202;-64
2023/08/15 05:22:49;;;;;;;4.70;4.32;;;;;;;;;;5065784;28;20209;-65
2023/08/15 05:25:17;;;;;;;6.20;4.47;;;;;;;;;;5065522;28;20703;-65
2023/08/15 05:27:43;;;;;;;5.50;5.10;;;;;;;;;;5054093;28;20209;-64
2023/08/15 05:30:10;;;;;;;4.95;4.50;;;;;;;;;;5061910;28;20206;-63
2023/08/15 05:32:37;;;;;;;14.75;4.53;;;;;;;;;;5066568;28;20267;-64
2023/08/15 05:35:04;;;;;;;9.63;5.25;;;;;;;;;;5058065;28;20199;-64
2023/08/15 05:37:31;;;;;;;5.13;4.72;;;;;;;;;;5053135;28;20281;-65
2023/08/15 05:39:57;;;;;;;9.15;5.47;;;;;;;;;;5053217;28;20262;-65
2023/08/15 05:42:25;;;;;;;10.15;4.45;;;;;;;;;;5053921;28;20206;-63
2023/08/15 05:44:51;;;;;;;8.00;4.95;;;;;;;;;;5052834;28;20721;-64
2023/08/15 05:47:19;;;;;;;5.47;4.95;;;;;;;;;;5057440;28;20225;-64
2023/08/15 05:49:45;;;;;;;6.80;4.97;;;;;;;;;;5068174;28;20209;-64
2023/08/15 05:52:12;;;;;;;6.05;4.50;;;;;;;;;;5062178;28;20662;-64
2023/08/15 05:54:38;;;;;;;4.78;4.38;;;;;;;;;;5053823;28;20202;-64
2023/08/15 05:57:05;;;;;;;6.63;4.25;;;;;;;;;;5052659;28;20269;-64
2023/08/15 05:59:33;;;;;;;5.43;4.20;;;;;;;;;;5055194;28;20205;-64
2023/08/15 06:02:00;;;;;;;11.27;4.60;;;;;;;;;;5053128;28;20261;-63
2023/08/15 06:04:26;;;;;;;5.47;4.28;;;;;;;;;;5053021;28;20293;-64
2023/08/15 06:06:53;;;;;;;11.95;5.05;;;;;;;;;;5049810;28;20256;-63
2023/08/15 06:09:19;;;;;;;8.07;5.03;;;;;;;;;;5052302;28;20232;-63
2023/08/15 06:11:46;;;;;;;8.90;5.38;;;;;;;;;;5066058;28;20271;-64
2023/08/15 06:14:12;;;;;;;7.18;4.90;;;;;;;;;;5066786;28;20203;-65
2023/08/15 06:16:40;;;;;;;12.48;5.53;;;;;;;;;;5066290;28;20726;-63
2023/08/15 06:19:06;;;;;;;6.57;5.85;;;;;;;;;;5066293;28;20202;-64
2023/08/15 06:21:33;;;;;;;14.23;5.82;;;;;;;;;;5066565;28;20194;-64
2023/08/15 06:23:59;;;;;;;9.27;5.57;;;;;;;;;;5058315;28;20261;-64
2023/08/15 06:26:26;;;;;;;11.90;5.97;;;;;;;;;;5051518;28;20250;-64
2023/08/15 06:28:52;;;;;;;9.95;6.10;;;;;;;;;;5056901;28;20292;-63
2023/08/15 06:31:18;;;;;;;17.35;6.88;;;;;;;;;;5052667;28;20203;-65
2023/08/15 06:33:46;;;;;;;11.43;9.80;;;;;;;;;;5062189;28;20265;-64
2023/08/15 06:36:13;;;;;;;19.25;10.65;;;;;;;;;;5066268;28;20290;-64
2023/08/15 06:38:39;;;;;;;8.18;6.70;;;;;;;;;;5064860;28;20199;-64
2023/08/15 06:41:06;;;;;;;11.10;7.18;;;;;;;;;;5064721;28;20266;-64
2023/08/15 06:43:33;;;;;;;17.13;7.03;;;;;;;;;;5066942;28;20194;-65
2023/08/15 06:45:59;;;;;;;14.50;5.97;;;;;;;;;;5066827;28;20230;-64
2023/08/15 06:48:26;;;;;;;6.82;6.13;;;;;;;;;;5066056;28;20202;-63
2023/08/15 06:50:53;;;;;;;10.43;5.75;;;;;;;;;;5065505;28;20704;-65
2023/08/15 06:53:20;;;;;;;12.25;6.28;;;;;;;;;;5054503;28;20230;-65
2023/08/15 06:55:48;;;;;;;9.52;6.68;;;;;;;;;;5054565;28;20202;-63
2023/08/15 06:58:15;;;;;;;15.13;7.70;;;;;;;;;;5053539;28;20202;-64
2023/08/15 07:00:42;;;;;;;10.65;6.00;;;;;;;;;;5053822;28;20207;-65
2023/08/15 07:03:09;;;;;;;9.80;7.95;;;;;;;;;;5059512;28;20202;-65
2023/08/15 07:05:36;;;;;;;7.40;6.15;;;;;;;;;;5055467;28;20222;-63
2023/08/15 07:08:04;;;;;;;11.40;6.47;;;;;;;;;;5056328;28;20225;-64
2023/08/15 07:10:30;;;;;;;14.75;6.20;;;;;;;;;;5055940;28;20211;-62
2023/08/15 07:12:57;;;;;;;7.47;5.53;;;;;;;;;;5057031;28;20194;-64
2023/08/15 07:15:23;;;;;;;8.07;6.50;;;;;;;;;;5065464;28;20198;-63
2023/08/15 07:17:50;;;;;;;16.42;10.75;;;;;;;;;;5065749;28;20202;-64
2023/08/15 07:20:16;;;;;;;14.73;7.72;;;;;;;;;;5065419;28;20238;-65
2023/08/15 07:22:43;;;;;;;9.40;5.93;;;;;;;;;;5064303;28;20595;-64
2023/08/15 07:25:12;;;;;;;12.38;6.40;;;;;;;;;;5067430;28;20222;-64
2023/08/15 07:27:38;;;;;;;6.53;5.90;;;;;;;;;;5066563;28;20202;-64
2023/08/15 07:30:05;;;;;;;7.28;5.57;;;;;;;;;;5067063;28;20226;-65
2023/08/15 07:32:32;;;;;;;12.23;5.55;;;;;;;;;;5067109;28;20206;-65
2023/08/15 07:34:59;;;;;;;10.75;5.30;;;;;;;;;;5066906;28;20205;-65
2023/08/15 07:37:25;;;;;;;9.55;5.18;;;;;;;;;;5061732;28;20271;-65
2023/08/15 07:39:56;;;;;;;14.65;6.32;;;;;;;;;;5050277;28;20716;-64
2023/08/15 07:42:25;;;;;;;8.40;4.63;;;;;;;;;;5055429;28;20227;-65
2023/08/15 07:44:52;;;;;;;8.88;6.18;;;;;;;;;;5051587;28;20202;-64
2023/08/15 07:47:18;;;;;;;4.65;4.25;;;;;;;;;;5050091;28;20210;-64
2023/08/15 07:49:45;;;;;;;8.68;5.53;;;;;;;;;;5051295;28;20199;-63
2023/08/15 07:52:11;;;;;;;9.30;5.15;;;;;;;;;;5051775;28;20226;-65
2023/08/15 07:54:37;;;;;;;5.93;5.30;;;;;;;;;;5055341;28;20199;-64
2023/08/15 07:57:04;;;;;;;8.85;5.20;;;;;;;;;;5050640;28;20669;-63
2023/08/15 07:59:32;;;;;;;7.68;5.28;;;;;;;;;;5050249;28;20202;-64
2023/08/15 08:01:58;;;;;;;5.57;5.05;;;;;;;;;;5050136;28;20223;-63
2023/08/15 08:04:25;;;;;;;6.10;5.47;;;;;;;;;;5053196;28;20195;-65
2023/08/15 08:06:51;;;;;;;6.45;4.80;;;;;;;;;;5050813;28;20253;-64
2023/08/15 08:09:18;;;;;;;7.95;7.10;;;;;;;;;;5064240;28;20206;-64
2023/08/15 08:11:44;;;;;;;7.13;5.15;;;;;;;;;;5063704;28;20205;-63
2023/08/15 08:14:11;;;;;;;5.75;5.25;;;;;;;;;;5065152;28;20222;-63
2023/08/15 08:16:38;;;;;;;11.65;5.82;;;;;;;;;;5062846;28;20772;-64
2023/08/15 08:19:05;;;;;;;6.53;5.80;;;;;;;;;;5064355;28;20712;-64
2023/08/15 08:21:33;;;;;;;9.90;6.22;;;;;;;;;;5063564;28;20203;-65
2023/08/15 08:23:59;;;;;;;6.72;6.20;;;;;;;;;;5061938;28;20198;-64
2023/08/15 08:26:26;;;;;;;6.95;6.10;;;;;;;;;;5049327;28;20276;-68
2023/08/15 08:28:52;;;;;;;7.72;6.05;;;;;;;;;;5050593;28;20203;-66
2023/08/15 08:31:19;;;;;;;8.40;7.45;;;;;;;;;;5057081;28;20981;-69
2023/08/15 08:33:47;;;;;;;6.25;5.75;;;;;;;;;;5061788;28;20717;-67
2023/08/15 08:36:13;;;;;;;14.23;7.45;;;;;;;;;;5064590;28;20195;-61
2023/08/15 08:38:40;;;;;;;8.48;6.03;;;;;;;;;;5064571;28;20222;-68
2023/08/15 08:41:06;;;;;;;8.25;6.07;;;;;;;;;;5062108;28;20292;-66
2023/08/15 08:43:33;;;;;;;8.50;6.13;;;;;;;;;;5063864;28;20221;-65
2023/08/15 08:46:01;;;;;;;6.35;5.75;;;;;;;;;;5064213;28;20716;-67
2023/08/15 08:48:27;;;;;;;8.68;6.75;;;;;;;;;;5063960;28;20199;-69
2023/08/15 08:50:55;;;;;;;6.90;5.75;;;;;;;;;;5063558;28;20206;-68
2023/08/15 08:53:22;;;;;;;13.27;6.68;;;;;;;;;;5063006;28;20947;-69
2023/08/15 08:55:48;;;;;;;9.45;6.18;;;;;;;;;;5064010;28;20235;-70
2023/08/15 08:58:15;;;;;;;7.55;5.65;;;;;;;;;;5068085;28;20204;-62
2023/08/15 09:00:41;;;;;;;8.27;6.75;;;;;;;;;;5067912;28;20210;-68
2023/08/15 09:03:08;;;;;;;7.70;5.90;;;;;;;;;;5067114;28;20206;-69
2023/08/15 09:05:35;;;;;;;7.47;6.55;;;;;;;;;;5067627;28;20206;-65
2023/08/15 09:08:03;;;;;;;6.90;6.30;;;;;;;;;;5067721;28;20718;-66
2023/08/15 09:10:30;;;;;;;11.05;5.57;;;;;;;;;;5068101;28;20200;-64
2023/08/15 09:12:57;;;;;;;7.57;5.70;;;;;;;;;;5067543;28;20305;-66
2023/08/15 09:15:24;;;;;;;6.25;5.65;;;;;;;;;;5067199;28;20629;-66
2023/08/15 09:17:57;;;;;;;8.75;5.30;;;;;;;;;;5067377;28;20883;-68
2023/08/15 09:20:24;;;;;;;5.95;5.50;;;;;;;;;;5067457;28;20701;-66
2023/08/15 09:22:51;;;;;;;6.82;5.38;;;;;;;;;;5066640;28;20238;-67
2023/08/15 09:25:19;;;;;;;6.05;5.57;;;;;;;;;;5067801;28;20194;-66
2023/08/15 09:27:45;;;;;;;7.97;6.28;;;;;;;;;;5065453;28;20288;-63
2023/08/15 09:30:13;;;;;;;9.85;6.05;;;;;;;;;;5068021;28;20229;-67
2023/08/15 09:32:40;;;;;;;7.40;5.80;;;;;;;;;;5066691;28;20283;-67
2023/08/15 09:35:06;;;;;;;6.78;5.32;;;;;;;;;;5067755;28;20220;-67
2023/08/15 09:37:33;;;;;;;5.10;4.60;;;;;;;;;;5066912;28;20584;-66
2023/08/15 09:40:00;;;;;;;6.43;4.65;;;;;;;;;;5067438;28;20234;-66
2023/08/15 09:42:28;;;;;;;4.75;4.45;;;;;;;;;;5067089;28;20236;-68
2023/08/15 09:44:56;;;;;;;5.28;4.80;;;;;;;;;;5067023;28;20233;-68
2023/08/15 09:47:22;;;;;;;5.25;4.88;;;;;;;;;;5066794;28;20237;-66
2023/08/15 09:49:52;;;;;;;7.05;4.90;;;;;;;;;;5067288;28;20198;-65
2023/08/15 09:52:19;;;;;;;12.00;5.15;;;;;;;;;;5066463;28;20226;-65
2023/08/15 09:54:46;;;;;;;5.30;5.00;;;;;;;;;;5067681;28;20191;-67
2023/08/15 09:57:13;;;;;;;6.53;5.15;;;;;;;;;;5066377;28;20206;-66
2023/08/15 09:59:41;;;;;;;6.22;5.63;;;;;;;;;;5067087;28;21057;-68
2023/08/15 10:02:13;;;;;;;9.50;5.20;;;;;;;;;;5066872;28;20592;-66
2023/08/15 10:04:40;;;;;;;5.35;4.63;;;;;;;;;;5066758;28;20251;-66
2023/08/15 10:07:07;;;;;;;5.70;5.15;;;;;;;;;;5066618;28;20311;-67
2023/08/15 10:09:33;;;;;;;5.20;4.80;;;;;;;;;;5065554;28;20233;-64
2023/08/15 10:12:00;;;;;;;6.13;5.35;;;;;;;;;;5067063;28;20230;-66
2023/08/15 10:14:27;;;;;;;8.32;5.35;;;;;;;;;;5066011;28;20210;-66
2023/08/15 10:16:55;;;;;;;6.68;5.70;;;;;;;;;;5066294;28;20267;-66
2023/08/15 10:19:29;;;;;;;7.82;5.53;;;;;;;;;;5065576;28;21282;-68
2023/08/15 10:21:55;;;;;;;5.90;5.28;;;;;;;;;;5066461;28;20203;-65
2023/08/15 10:24:22;;;;;;;5.55;5.15;;;;;;;23.26;0.00;145904.53;5066507;28;20228;-64
2023/08/15 10:26:52;;;;;;;6.80;5.30;;;;;;;;;;5066017;28;20249;-66
2023/08/15 10:29:18;;;;;;;5.28;4.78;;;;;;;;;;5065313;28;20675;-67
2023/08/15 10:31:44;;;;;;;6.28;5.07;;;;;;;;;;5065800;28;20238;-61
2023/08/15 10:34:12;;;;;;;8.60;5.47;;;;;;;;;;5064728;28;20289;-66
2023/08/15 10:36:41;;;;;;;6.07;5.22;;;;;;;;;;5065995;28;20656;-67
2023/08/15 10:39:08;;;;;;;5.95;4.88;;;;;;;;;;5065914;28;20225;-67
2023/08/15 10:41:34;;;;;;;5.30;4.97;;;;;;;;;;5066300;28;20206;-62
2023/08/15 10:44:02;;;;;;;8.23;5.78;;;;;;;;;;5065785;28;20672;-66
2023/08/15 10:46:30;;;;;;;7.88;4.80;;;;;;;;;;5066425;28;20294;-68
2023/08/15 10:48:59;;;;;;;7.30;5.60;;;;;;;;;;5064855;28;20877;-65
2023/08/15 10:51:27;;;;;;;7.50;4.97;;;;;;;;;;5065465;28;20198;-64
2023/08/15 10:53:54;;;;;;;5.88;5.18;;;;;;;;;;5064823;28;20206;-66
2023/08/15 10:56:22;;;;;;;5.57;5.18;;;;;;;;;;5065496;28;20283;-65
2023/08/15 10:58:49;;;;;;;5.55;5.05;;;;;;;;;;5065778;28;20738;-66
2023/08/15 11:01:16;;;;;;;6.63;5.05;;;;;;;;;;5066136;28;21711;-67
2023/08/15 11:03:43;;;;;;;10.88;5.70;;;;;;;;;;5065282;28;20672;-66
2023/08/15 11:06:11;;;;;;;11.95;6.45;;;;;;;;;;5065987;28;20229;-66
2023/08/15 11:08:42;;;;;;;5.78;5.30;;;;;;;;;;5065648;28;20206;-66
2023/08/15 11:11:09;;;;;;;10.27;5.57;;;;;;;;;;5065920;28;20281;-66
2023/08/15 11:13:36;;;;;;;5.60;5.03;;;;;;;;;;5065233;28;20285;-63
2023/08/15 11:16:03;;;;;;;5.93;5.47;;;;;;;;;;5066428;28;20238;-66
2023/08/15 11:18:30;;;;;;;6.85;5.25;;;;;;;;;;5065482;28;20238;-68
2023/08/15 11:20:56;;;;;;;5.13;4.63;;;;;;;;;;5064933;28;20237;-65
2023/08/15 11:23:23;;;;;;;5.80;4.63;;;;;;;;;;5067349;28;20753;-64
2023/08/15 11:25:50;;;;;;;7.03;4.68;;;;;;;;;;5066076;28;20293;-67
2023/08/15 11:28:17;;;;;;;5.72;5.30;;;;;;;;;;5065704;28;20281;-66
2023/08/15 11:30:43;;;;;;;5.80;5.25;;;;;;;;;;5065411;28;20215;-65
2023/08/15 11:33:10;;;;;;;6.40;5.20;;;;;;;;;;5065728;28;20659;-66
2023/08/15 11:35:36;;;;;;;8.57;5.30;;;;;;;;;;5064802;28;20233;-66
2023/08/15 11:38:03;;;;;;;7.30;5.38;;;;;;;;;;5065036;28;20234;-67
2023/08/15 11:40:30;;;;;;;8.73;5.32;;;;;;;;;;5064018;28;20234;-66
2023/08/15 11:42:58;;;;;;;6.68;6.05;;;;;;;;;;5065942;28;20206;-66
2023/08/15 11:45:24;;;;;;;8.05;4.70;;;;;;;;;;5065035;28;20202;-67
2023/08/15 11:47:57;;;;;;;6.60;5.22;;;;;;;;;;5065107;28;20317;-65
2023/08/15 11:50:24;;;;;;;8.65;5.80;;;;;;;;;;5065686;28;20263;-64
2023/08/15 11:52:51;;;;;;;6.57;5.38;;;;;;;;;;5064954;28;20253;-64
2023/08/15 11:55:18;;;;;;;9.27;5.70;;;;;;;;;;5064805;28;20673;-67
2023/08/15 11:57:44;;;;;;;6.75;5.30;;;;;;;;;;5064777;28;20327;-65
2023/08/15 12:00:15;;;;;;;10.07;6.40;;;;;;;;;;5064669;28;20218;-66
2023/08/15 12:02:42;;;;;;;7.25;6.47;;;;;;;;;;5064087;28;20736;-65
2023/08/15 12:05:10;;;;;;;7.95;6.35;;;;;;;;;;5064288;28;20198;-63
2023/08/15 12:07:36;;;;;;;7.53;4.90;;;;;;;;;;5064064;28;20226;-64
2023/08/15 12:10:03;;;;;;;8.80;5.82;;;;;;;;;;5065059;28;20199;-67
2023/08/15 12:12:29;;;;;;;11.85;6.20;;;;;;;;;;5063864;28;20230;-65
2023/08/15 12:14:56;;;;;;;5.93;5.55;;;;;;;;;;5064718;28;20765;-65
2023/08/15 12:17:27;;;;;;;7.03;6.18;;;;;;;;;;5064803;28;20682;-66
2023/08/15 12:19:53;;;;;;;12.57;6.07;;;;;;;;;;5064558;28;20210;-66
2023/08/15 12:22:19;;;;;;;8.43;6.22;;;;;;;;;;5064941;28;20275;-66
2023/08/15 12:24:46;;;;;;;7.85;6.30;;;;;;;;;;5064358;28;20202;-65
2023/08/15 12:27:12;;;;;;;12.60;6.30;;;;;;;;;;5064668;28;20254;-67
2023/08/15 12:29:39;;;;;;;6.65;6.05;;;;;;;;;;5063741;28;20206;-69
2023/08/15 12:32:05;;;;;;;6.82;6.30;;;;;;;;;;5064375;28;20233;-68
2023/08/15 12:34:33;;;;;;;6.80;6.10;;;;;;;;;;5063791;28;20638;-65
2023/08/15 12:37:00;;;;;;;7.22;6.68;;;;;;;;;;5064282;28;20259;-65
2023/08/15 12:39:26;;;;;;;7.45;6.82;;;;;;;;;;5064275;28;20617;-66
2023/08/15 12:41:54;;;;;;;14.27;6.78;;;;;;;;;;5064304;28;20525;-66
2023/08/15 12:44:20;;;;;;;6.78;6.18;;;;;;;;;;5061442;28;20272;-66
2023/08/15 12:46:46;;;;;;;13.23;7.20;;;;;;;;;;5048294;28;20667;-65
2023/08/15 12:49:13;;;;;;;7.75;7.15;;;;;;;;;;5048051;28;20284;-67
2023/08/15 12:51:41;;;;;;;7.88;7.05;;;;;;;;;;5061844;28;20202;-65
2023/08/15 12:54:07;;;;;;;7.15;6.55;;;;;;;;;;5063096;28;20338;-67
2023/08/15 12:56:34;;;;;;;7.70;6.93;;;;;;;;;;5065249;28;20202;-65
2023/08/15 12:59:00;;;;;;;7.93;7.13;;;;;;;;;;5063764;28;20203;-61
2023/08/15 13:01:27;;;;;;;14.27;7.18;;;;;;;;;;5065848;28;20838;-66
2023/08/15 13:03:55;;;;;;;7.40;6.82;;;;;;;;;;5064284;28;20199;-67
2023/08/15 13:06:22;;;;;;;7.43;6.90;;;;;;;;;;5065954;28;20226;-67
2023/08/15 13:08:49;;;;;;;7.28;6.57;;;;;;;;;;5063688;28;20217;-69
2023/08/15 13:11:16;;;;;;;7.03;6.50;;;;;;;;;;5053683;28;20294;-63
2023/08/15 13:13:42;;;;;;;7.65;7.05;;;;;;;;;;5048960;28;20203;-67
2023/08/15 13:16:09;;;;;;;8.07;7.47;;;;;;;;;;5053143;28;20677;-67
2023/08/15 13:18:35;;;;;;;8.07;7.57;;;;;;;;;;5047588;28;20195;-65
2023/08/15 13:21:02;;;;;;;7.70;6.97;;;;;;;;;;5050934;28;20284;-65
2023/08/15 13:23:29;;;;;;;8.55;7.85;;;;;;;;;;5049729;28;20213;-66
2023/08/15 13:25:58;;;;;;;8.35;7.65;;;;;;;;;;5059342;28;20206;-64
2023/08/15 13:28:24;;;;;;;12.18;7.13;;;;;;;;;;5064842;28;20222;-65
2023/08/15 13:30:51;;;;;;;10.90;7.70;;;;;;;;;;5063955;28;20230;-65
2023/08/15 13:33:17;;;;;;;7.95;7.28;;;;;;;;;;5065460;28;20255;-62
2023/08/15 13:35:44;;;;;;;8.00;7.32;;;;;;;;;;5074632;28;20603;-64
2023/08/15 13:38:10;;;;;;;7.50;7.00;;;;;;;;;;5069905;28;20207;-67
2023/08/15 13:40:37;;;;;;;7.22;6.57;;;;;;;;;;5063120;28;20268;-66
2023/08/15 13:43:05;;;;;;;8.02;7.22;;;;;;;;;;5064505;28;20229;-66
2023/08/15 13:45:31;;;;;;;14.20;7.80;;;;;;;;;;5067578;28;20645;-65
2023/08/15 13:47:57;;;;;;;7.22;6.72;;;;;;;;;;5067171;28;20218;-65
2023/08/15 13:50:24;;;;;;;8.38;7.68;;;;;;;;;;5067381;28;20287;-65
2023/08/15 13:52:50;;;;;;;7.85;7.20;;;;;;;;;;5067372;28;20294;-65
2023/08/15 13:55:17;;;;;;;8.95;8.15;;;;;;;;;;5067554;28;20654;-65
2023/08/15 13:57:43;;;;;;;8.70;7.95;;;;;;;;;;5068408;28;20256;-62
2023/08/15 14:00:11;;;;;;;8.20;7.60;;;;;;;;;;5067099;28;20226;-63
2023/08/15 14:02:38;;;;;;;8.13;7.60;;;;;;;;;;5067109;28;20245;-67
2023/08/15 14:05:05;;;;;;;8.65;7.55;;;;;;;;;;5066836;28;20259;-67
2023/08/15 14:07:32;;;;;;;10.68;7.45;;;;;;;;;;5067194;28;20226;-66
2023/08/15 14:09:58;;;;;;;9.00;8.20;;;;;;;;;;5066306;28;20230;-62
2023/08/15 14:12:26;;;;;;;7.75;7.05;;;;;;;;;;5067264;28;20213;-64
2023/08/15 14:14:53;;;;;;;8.15;7.30;;;;;;;;;;5066919;28;20744;-65
2023/08/15 14:17:21;;;;;;;8.32;7.72;;;;;;;;;;5066121;28;20241;-67
2023/08/15 14:19:47;;;;;;;11.50;7.75;;;;;;;;;;5052387;28;20254;-66
2023/08/15 14:22:14;;;;;;;8.18;7.35;;;;;;;;;;5060427;28;20233;-66
2023/08/15 14:24:46;;;;;;;8.82;8.00;;;;;;;;;;5067929;28;20225;-66
2023/08/15 14:27:12;;;;;;;9.05;8.10;;;;;;;;;;5067429;28;20202;-64
2023/08/15 14:29:39;;;;;;;8.57;7.78;;;;;;;;;;5053754;28;20372;-67
2023/08/15 14:32:06;;;;;;;8.35;7.60;;;;;;;;;;5051484;28;20207;-62
2023/08/15 14:34:34;;;;;;;8.88;8.15;;;;;;;;;;5053558;28;20803;-66
2023/08/15 14:37:01;;;;;;;8.77;8.07;;;;;;;;;;5051232;28;20237;-66
2023/08/15 14:39:27;;;;;;;8.63;7.57;;;;;;;;;;5053825;28;20258;-65